createdAt,value
2018-09-10T00:00:42.389Z,13.90
2018-09-10T00:03:10.937Z,13.80
2018-09-10T00:05:39.540Z,13.80
2018-09-10T00:08:08.195Z,13.80
2018-09-10T00:10:37.478Z,13.80
2018-09-10T00:13:06.485Z,13.80
2018-09-10T00:15:35.317Z,13.80
2018-09-10T00:18:04.251Z,13.70
2018-09-10T00:20:33.157Z,13.70
2018-09-10T00:23:02.006Z,13.70
2018-09-10T00:25:30.881Z,13.60
2018-09-10T00:27:59.707Z,13.60
2018-09-10T00:30:28.487Z,13.60
2018-09-10T00:32:57.397Z,13.60
2018-09-10T00:35:26.288Z,13.50
2018-09-10T00:37:55.248Z,13.50
2018-09-10T00:40:24.076Z,13.50
2018-09-10T00:42:52.957Z,13.50
2018-09-10T00:45:21.899Z,13.50
2018-09-10T00:47:50.989Z,13.50
2018-09-10T00:50:20.141Z,13.40
2018-09-10T00:52:49.017Z,13.40
2018-09-10T00:55:17.792Z,13.40
2018-09-10T00:57:46.631Z,13.40
2018-09-10T01:00:15.457Z,13.40
2018-09-10T01:02:44.311Z,13.30
2018-09-10T01:05:13.201Z,13.30
2018-09-10T01:07:41.982Z,13.30
2018-09-10T01:10:10.997Z,13.20
2018-09-10T01:12:39.813Z,13.20
2018-09-10T01:15:08.799Z,13.20
2018-09-10T01:17:37.661Z,13.10
2018-09-10T01:20:06.613Z,13.10
2018-09-10T01:22:35.763Z,13.10
2018-09-10T01:25:04.711Z,13.10
2018-09-10T01:27:33.639Z,13.10
2018-09-10T01:30:02.581Z,13.00
2018-09-10T01:32:31.588Z,13.00
2018-09-10T01:35:02.863Z,13.00
2018-09-10T01:37:32.471Z,13.00
2018-09-10T01:40:01.906Z,12.90
2018-09-10T01:42:31.281Z,12.90
2018-09-10T01:45:00.975Z,12.90
2018-09-10T01:47:29.957Z,12.90
2018-09-10T01:49:58.839Z,12.90
2018-09-10T01:52:28.507Z,12.90
2018-09-10T01:54:57.723Z,12.90
2018-09-10T01:57:26.578Z,12.80
2018-09-10T01:59:55.529Z,12.80
2018-09-10T02:02:24.345Z,12.80
2018-09-10T02:04:53.507Z,12.80
2018-09-10T02:07:22.587Z,12.80
2018-09-10T02:09:51.536Z,12.70
2018-09-10T02:12:25.066Z,12.70
2018-09-10T02:14:55.383Z,12.70
2018-09-10T02:17:25.175Z,12.70
2018-09-10T02:19:54.416Z,12.70
2018-09-10T02:22:23.285Z,12.70
2018-09-10T02:24:52.353Z,12.60
2018-09-10T02:27:21.210Z,12.60
2018-09-10T02:29:50.192Z,12.60
2018-09-10T02:32:19.040Z,12.50
2018-09-10T02:34:48.067Z,12.50
2018-09-10T02:37:17.281Z,12.50
2018-09-10T02:39:46.114Z,12.50
2018-09-10T02:42:15.089Z,12.40
2018-09-10T02:44:44.058Z,12.40
2018-09-10T02:47:12.985Z,12.40
2018-09-10T02:49:41.872Z,12.40
2018-09-10T02:52:10.740Z,12.40
2018-09-10T02:54:39.640Z,12.30
2018-09-10T02:57:08.464Z,12.30
2018-09-10T02:59:37.472Z,12.30
2018-09-10T03:02:06.351Z,12.30
2018-09-10T03:04:35.300Z,12.20
2018-09-10T03:07:04.202Z,12.20
2018-09-10T03:09:33.048Z,12.10
2018-09-10T03:12:01.870Z,12.20
2018-09-10T03:14:30.911Z,12.10
2018-09-10T03:16:59.931Z,12.10
2018-09-10T03:19:28.764Z,12.10
2018-09-10T03:21:57.650Z,12.10
2018-09-10T03:24:26.641Z,12.10
2018-09-10T03:26:55.488Z,12.00
2018-09-10T03:29:24.588Z,12.00
2018-09-10T03:31:53.493Z,12.00
2018-09-10T03:34:22.426Z,12.00
2018-09-10T03:36:51.328Z,12.00
2018-09-10T03:39:20.402Z,11.90
2018-09-10T03:41:49.958Z,11.90
2018-09-10T03:44:19.208Z,11.90
2018-09-10T03:46:48.026Z,11.90
2018-09-10T03:49:16.842Z,11.90
2018-09-10T03:51:45.674Z,11.90
2018-09-10T03:54:14.536Z,11.90
2018-09-10T03:56:43.381Z,11.90
2018-09-10T03:59:12.387Z,11.80
2018-09-10T04:01:41.189Z,11.80
2018-09-10T04:04:10.028Z,11.80
2018-09-10T04:06:38.873Z,11.80
2018-09-10T04:09:08.504Z,11.80
2018-09-10T04:11:37.443Z,11.80
2018-09-10T04:14:06.292Z,11.80
2018-09-10T04:16:35.177Z,11.80
2018-09-10T04:19:10.811Z,11.80
2018-09-10T04:21:39.746Z,11.70
2018-09-10T04:24:08.580Z,11.70
2018-09-10T04:26:37.372Z,11.70
2018-09-10T04:29:06.253Z,11.70
2018-09-10T04:31:35.042Z,11.70
2018-09-10T04:34:04.077Z,11.70
2018-09-10T04:36:32.946Z,11.70
2018-09-10T04:39:01.801Z,11.70
2018-09-10T04:41:38.625Z,11.70
2018-09-10T04:44:07.574Z,11.70
2018-09-10T04:46:37.065Z,11.80
2018-09-10T04:49:06.360Z,11.80
2018-09-10T04:51:35.560Z,11.80
2018-09-10T04:54:05.003Z,11.80
2018-09-10T04:56:34.020Z,11.80
2018-09-10T04:59:02.944Z,11.90
2018-09-10T05:01:31.717Z,11.80
2018-09-10T05:04:10.592Z,11.90
2018-09-10T05:06:39.887Z,11.90
2018-09-10T05:09:09.423Z,11.90
2018-09-10T05:11:38.385Z,12.00
2018-09-10T05:14:15.251Z,12.00
2018-09-10T05:16:44.198Z,12.10
2018-09-10T05:19:13.089Z,12.20
2018-09-10T05:21:42.169Z,12.20
2018-09-10T05:24:11.108Z,12.30
2018-09-10T05:26:39.942Z,12.40
2018-09-10T05:29:09.770Z,12.50
2018-09-10T05:31:38.618Z,12.60
2018-09-10T05:34:07.968Z,12.70
2018-09-10T05:36:36.920Z,12.80
2018-09-10T05:39:07.428Z,13.00
2018-09-10T05:41:36.359Z,13.10
2018-09-10T05:44:05.558Z,13.30
2018-09-10T05:46:42.643Z,13.50
2018-09-10T05:49:11.569Z,13.50
2018-09-10T05:51:40.951Z,13.70
2018-09-10T05:54:09.917Z,13.70
2018-09-10T05:56:38.749Z,13.90
2018-09-10T05:59:07.856Z,14.00
2018-09-10T06:01:36.654Z,14.10
2018-09-10T06:04:05.733Z,14.40
2018-09-10T06:06:34.570Z,14.60
2018-09-10T06:09:04.981Z,14.90
2018-09-10T06:11:34.029Z,15.20
2018-09-10T06:14:03.076Z,15.40
2018-09-10T06:16:35.847Z,15.70
2018-09-10T06:19:04.696Z,16.00
2018-09-10T06:21:36.787Z,16.30
2018-09-10T06:24:05.823Z,16.60
2018-09-10T06:26:34.679Z,16.90
2018-09-10T06:29:03.634Z,17.10
2018-09-10T06:31:32.541Z,17.10
2018-09-10T06:34:01.989Z,17.20
2018-09-10T06:36:30.873Z,17.30
2018-09-10T06:38:59.749Z,17.60
2018-09-10T06:42:06.646Z,17.90
2018-09-10T06:44:36.025Z,18.10
2018-09-10T06:47:04.963Z,18.40
2018-09-10T06:49:34.021Z,18.50
2018-09-10T06:52:02.945Z,18.60
2018-09-10T06:54:31.921Z,18.70
2018-09-10T06:57:00.773Z,18.70
2018-09-10T06:59:29.683Z,18.80
2018-09-10T07:01:58.611Z,18.90
2018-09-10T07:04:27.437Z,19.00
2018-09-10T07:06:56.273Z,19.20
2018-09-10T07:09:25.104Z,19.30
2018-09-10T07:11:53.917Z,19.40
2018-09-10T07:14:22.833Z,19.30
2018-09-10T07:16:52.083Z,19.50
2018-09-10T07:19:20.931Z,19.70
2018-09-10T07:21:49.799Z,19.90
2018-09-10T07:24:18.821Z,20.10
2018-09-10T07:26:47.815Z,20.30
2018-09-10T07:29:16.709Z,20.50
2018-09-10T07:31:45.477Z,20.60
2018-09-10T07:34:14.334Z,20.60
2018-09-10T07:36:43.146Z,20.60
2018-09-10T07:39:12.847Z,20.80
2018-09-10T07:41:41.927Z,21.00
2018-09-10T07:44:10.828Z,21.00
2018-09-10T07:46:39.873Z,21.00
2018-09-10T07:49:08.669Z,21.20
2018-09-10T07:51:37.543Z,21.40
2018-09-10T07:54:06.427Z,21.50
2018-09-10T07:56:35.275Z,21.50
2018-09-10T07:59:04.241Z,21.60
2018-09-10T08:01:33.074Z,21.70
2018-09-10T08:04:01.925Z,21.90
2018-09-10T08:06:30.875Z,21.80
2018-09-10T08:08:59.830Z,21.80
2018-09-10T08:11:28.643Z,22.00
2018-09-10T08:13:57.805Z,22.30
2018-09-10T08:16:26.722Z,22.50
2018-09-10T08:18:55.559Z,22.50
2018-09-10T08:21:24.665Z,22.60
2018-09-10T08:23:53.620Z,22.70
2018-09-10T08:26:22.625Z,22.80
2018-09-10T08:28:51.491Z,23.00
2018-09-10T08:31:20.348Z,23.10
2018-09-10T08:33:49.216Z,23.20
2018-09-10T08:36:18.415Z,23.20
2018-09-10T08:38:47.623Z,23.10
2018-09-10T08:41:16.555Z,23.10
2018-09-10T08:43:45.459Z,23.10
2018-09-10T08:46:14.723Z,23.40
2018-09-10T08:48:44.443Z,23.40
2018-09-10T08:51:13.349Z,23.70
2018-09-10T08:53:42.636Z,23.90
2018-09-10T08:56:11.872Z,24.00
2018-09-10T08:58:40.525Z,24.20
2018-09-10T09:01:09.388Z,24.30
2018-09-10T09:03:38.428Z,24.30
2018-09-10T09:06:07.518Z,24.40
2018-09-10T09:08:36.364Z,24.60
2018-09-10T09:11:05.773Z,24.80
2018-09-10T09:13:34.654Z,25.00
2018-09-10T09:16:03.576Z,25.30
2018-09-10T09:18:32.625Z,25.40
2018-09-10T09:21:01.451Z,25.60
2018-09-10T09:23:30.579Z,25.80
2018-09-10T09:25:59.463Z,26.00
2018-09-10T09:28:28.371Z,26.20
2018-09-10T09:30:57.223Z,26.40
2018-09-10T09:33:26.067Z,26.50
2018-09-10T09:36:00.749Z,26.30
2018-09-10T09:38:34.981Z,26.00
2018-09-10T09:41:09.093Z,26.00
2018-09-10T09:43:43.201Z,26.20
2018-09-10T09:46:13.963Z,26.50
2018-09-10T09:48:42.966Z,26.40
2018-09-10T09:51:11.946Z,26.40
2018-09-10T09:53:40.721Z,26.30
2018-09-10T09:56:09.567Z,26.40
2018-09-10T09:58:38.435Z,26.30
2018-09-10T10:01:12.531Z,26.30
2018-09-10T10:03:46.641Z,26.60
2018-09-10T10:06:31.199Z,26.40
2018-09-10T10:09:00.279Z,26.10
2018-09-10T10:11:29.138Z,26.00
2018-09-10T10:13:58.005Z,26.10
2018-09-10T10:16:26.910Z,26.30
2018-09-10T10:18:55.809Z,26.50
2018-09-10T10:21:24.876Z,26.70
2018-09-10T10:23:53.745Z,27.00
2018-09-10T10:26:22.529Z,27.40
2018-09-10T10:28:51.385Z,27.60
2018-09-10T10:31:20.421Z,28.00
2018-09-10T10:33:49.440Z,28.00
2018-09-10T10:36:18.294Z,28.30
2018-09-10T10:38:47.237Z,28.40
2018-09-10T10:41:16.078Z,28.40
2018-09-10T10:43:44.961Z,28.50
2018-09-10T10:46:13.771Z,28.40
2018-09-10T10:48:42.826Z,28.60
2018-09-10T10:51:12.117Z,28.70
2018-09-10T10:53:41.134Z,29.00
2018-09-10T10:56:09.972Z,29.30
2018-09-10T10:58:38.828Z,29.50
2018-09-10T11:01:07.702Z,29.60
2018-09-10T11:03:36.574Z,29.50
2018-09-10T11:06:05.448Z,29.50
2018-09-10T11:08:34.184Z,29.30
2018-09-10T11:11:03.999Z,29.40
2018-09-10T11:13:32.852Z,29.70
2018-09-10T11:16:01.779Z,29.60
2018-09-10T11:18:30.751Z,29.60
2018-09-10T11:20:59.604Z,29.60
2018-09-10T11:23:28.822Z,29.40
2018-09-10T11:25:57.756Z,29.30
2018-09-10T11:28:26.646Z,29.50
2018-09-10T11:30:56.000Z,29.70
2018-09-10T11:33:24.913Z,29.80
2018-09-10T11:35:53.961Z,30.00
2018-09-10T11:38:22.962Z,30.10
2018-09-10T11:40:52.902Z,29.90
2018-09-10T11:43:22.117Z,29.90
2018-09-10T11:45:50.916Z,29.70
2018-09-10T11:48:19.813Z,29.50
2018-09-10T11:50:48.727Z,29.70
2018-09-10T11:53:17.993Z,29.70
2018-09-10T11:55:46.928Z,29.80
2018-09-10T11:58:15.902Z,30.00
2018-09-10T12:00:44.858Z,30.20
2018-09-10T12:03:13.691Z,30.50
2018-09-10T12:05:42.577Z,30.70
2018-09-10T12:08:11.503Z,30.70
2018-09-10T12:10:40.372Z,31.20
2018-09-10T12:13:09.490Z,31.40
2018-09-10T12:15:38.690Z,31.50
2018-09-10T12:18:07.711Z,31.40
2018-09-10T12:20:36.779Z,31.30
2018-09-10T12:23:05.711Z,31.40
2018-09-10T12:25:34.885Z,31.60
2018-09-10T12:28:04.277Z,31.80
2018-09-10T12:30:33.026Z,32.30
2018-09-10T12:33:01.860Z,32.90
2018-09-10T12:35:30.961Z,33.80
2018-09-10T12:37:59.704Z,34.70
2018-09-10T12:40:28.573Z,34.90
2018-09-10T12:42:57.579Z,34.90
2018-09-10T12:45:26.463Z,35.10
2018-09-10T12:47:55.449Z,35.50
2018-09-10T12:50:24.273Z,35.70
2018-09-10T12:52:53.066Z,34.90
2018-09-10T12:55:21.922Z,34.70
2018-09-10T12:57:50.794Z,34.20
2018-09-10T13:00:19.621Z,33.90
2018-09-10T13:02:48.459Z,33.60
2018-09-10T13:05:17.333Z,33.80
2018-09-10T13:07:46.257Z,35.30
2018-09-10T13:10:14.871Z,36.10
2018-09-10T13:12:43.307Z,36.70
2018-09-10T13:15:11.833Z,37.50
2018-09-10T13:17:40.592Z,38.00
2018-09-10T13:20:09.381Z,37.90
2018-09-10T13:22:37.981Z,37.50
2018-09-10T13:25:06.856Z,37.10
2018-09-10T13:27:35.388Z,36.30
2018-09-10T13:30:04.013Z,35.40
2018-09-10T13:32:34.048Z,35.20
2018-09-10T13:35:02.662Z,35.10
2018-09-10T13:37:31.188Z,34.80
2018-09-10T13:39:59.913Z,34.60
2018-09-10T13:42:28.659Z,34.70
2018-09-10T13:44:57.220Z,34.30
2018-09-10T13:47:25.756Z,33.80
2018-09-10T13:49:54.415Z,34.30
2018-09-10T13:52:22.994Z,34.40
2018-09-10T13:54:51.545Z,34.40
2018-09-10T13:57:20.882Z,34.10
2018-09-10T13:59:50.041Z,33.90
2018-09-10T14:02:19.690Z,34.50
2018-09-10T14:04:48.305Z,34.80
2018-09-10T14:07:16.924Z,34.60
2018-09-10T14:09:45.708Z,33.50
2018-09-10T14:12:14.291Z,32.80
2018-09-10T14:14:42.790Z,32.20
2018-09-10T14:17:11.696Z,31.50
2018-09-10T14:19:40.463Z,30.70
2018-09-10T14:22:09.217Z,30.20
2018-09-10T14:24:37.816Z,29.90
2018-09-10T14:27:06.520Z,29.80
2018-09-10T14:29:35.531Z,29.90
2018-09-10T14:32:04.544Z,30.00
2018-09-10T14:34:33.722Z,30.20
2018-09-10T14:37:02.527Z,30.60
2018-09-10T14:39:31.371Z,30.60
2018-09-10T14:42:00.314Z,30.40
2018-09-10T14:44:29.190Z,30.70
2018-09-10T14:46:58.151Z,31.50
2018-09-10T14:49:27.020Z,32.10
2018-09-10T14:51:55.794Z,32.60
2018-09-10T14:54:24.717Z,33.10
2018-09-10T14:56:53.649Z,32.90
2018-09-10T14:59:22.581Z,32.60
2018-09-10T15:01:51.425Z,32.40
2018-09-10T15:04:21.141Z,32.30
2018-09-10T15:06:50.327Z,32.30
2018-09-10T15:09:19.724Z,32.30
2018-09-10T15:11:48.795Z,31.90
2018-09-10T15:14:18.575Z,31.40
2018-09-10T15:16:47.422Z,31.10
2018-09-10T15:19:16.344Z,31.20
2018-09-10T15:21:45.104Z,31.10
2018-09-10T15:24:13.972Z,30.80
2018-09-10T15:26:42.916Z,30.20
2018-09-10T15:29:11.782Z,29.70
2018-09-10T15:31:40.698Z,29.30
2018-09-10T15:34:09.690Z,29.10
2018-09-10T15:36:38.437Z,28.80
2018-09-10T15:39:08.209Z,28.70
2018-09-10T15:41:37.371Z,28.70
2018-09-10T15:44:06.807Z,28.50
2018-09-10T15:46:35.839Z,28.30
2018-09-10T15:49:25.180Z,28.10
2018-09-10T15:51:54.047Z,28.00
2018-09-10T15:54:23.002Z,27.90
2018-09-10T15:56:52.368Z,27.80
2018-09-10T15:59:21.485Z,27.80
2018-09-10T16:01:52.355Z,27.70
2018-09-10T16:04:21.177Z,27.60
2018-09-10T16:06:50.037Z,27.50
2018-09-10T16:09:19.108Z,27.50
2018-09-10T16:11:48.094Z,27.40
2018-09-10T16:14:17.094Z,27.30
2018-09-10T16:16:46.070Z,27.30
2018-09-10T16:19:31.296Z,27.20
2018-09-10T16:22:00.056Z,27.20
2018-09-10T16:24:28.680Z,27.10
2018-09-10T16:26:57.289Z,27.00
2018-09-10T16:29:25.896Z,26.80
2018-09-10T16:31:56.433Z,26.70
2018-09-10T16:34:24.963Z,26.60
2018-09-10T16:36:53.711Z,26.50
2018-09-10T16:39:22.561Z,26.40
2018-09-10T16:41:51.164Z,26.40
2018-09-10T16:44:19.779Z,26.40
2018-09-10T16:46:48.354Z,26.30
2018-09-10T16:49:17.137Z,26.30
2018-09-10T16:51:45.691Z,26.20
2018-09-10T16:54:16.432Z,26.10
2018-09-10T16:56:45.017Z,26.10
2018-09-10T16:59:13.579Z,26.10
2018-09-10T17:01:42.169Z,26.00
2018-09-10T17:04:10.611Z,26.00
2018-09-10T17:06:39.372Z,25.90
2018-09-10T17:09:09.389Z,25.80
2018-09-10T17:11:38.411Z,25.80
2018-09-10T17:14:06.991Z,25.60
2018-09-10T17:16:35.741Z,25.60
2018-09-10T17:19:04.519Z,25.60
2018-09-10T17:21:33.254Z,25.50
2018-09-10T17:24:02.219Z,25.40
2018-09-10T17:26:30.727Z,25.40
2018-09-10T17:28:59.471Z,25.30
2018-09-10T17:31:28.077Z,25.20
2018-09-10T17:33:56.692Z,25.20
2018-09-10T17:36:25.215Z,25.10
2018-09-10T17:38:53.793Z,25.00
2018-09-10T17:41:22.350Z,24.90
2018-09-10T17:43:51.159Z,24.80
2018-09-10T17:46:19.893Z,24.60
2018-09-10T17:48:48.533Z,24.60
2018-09-10T17:51:17.230Z,24.40
2018-09-10T17:53:46.157Z,24.30
2018-09-10T17:56:14.795Z,24.20
2018-09-10T17:58:43.990Z,24.00
2018-09-10T18:01:13.553Z,23.90
2018-09-10T18:03:42.120Z,23.80
2018-09-10T18:06:10.765Z,23.60
2018-09-10T18:08:44.373Z,23.50
2018-09-10T18:11:12.931Z,23.40
2018-09-10T18:13:41.541Z,23.30
2018-09-10T18:16:10.151Z,23.10
2018-09-10T18:18:38.667Z,23.00
2018-09-10T18:21:07.192Z,22.90
2018-09-10T18:23:35.919Z,22.80
2018-09-10T18:26:04.691Z,22.70
2018-09-10T18:28:33.288Z,22.50
2018-09-10T18:31:05.144Z,22.40
2018-09-10T18:33:33.764Z,22.40
2018-09-10T18:36:02.582Z,22.30
2018-09-10T18:38:31.106Z,22.20
2018-09-10T18:40:59.614Z,22.10
2018-09-10T18:43:28.124Z,22.00
2018-09-10T18:45:56.937Z,21.90
2018-09-10T18:48:26.386Z,21.80
2018-09-10T18:50:55.013Z,21.70
2018-09-10T18:53:23.540Z,21.70
2018-09-10T18:55:53.113Z,21.60
2018-09-10T18:58:22.066Z,21.50
2018-09-10T19:00:50.700Z,21.40
2018-09-10T19:03:25.028Z,21.40
2018-09-10T19:05:53.698Z,21.30
2018-09-10T19:08:54.278Z,21.20
2018-09-10T19:11:23.637Z,21.10
2018-09-10T19:13:52.385Z,21.10
2018-09-10T19:16:21.070Z,21.00
2018-09-10T19:18:49.597Z,20.90
2018-09-10T19:21:25.346Z,20.80
2018-09-10T19:23:54.017Z,20.80
2018-09-10T19:26:22.715Z,20.70
2018-09-10T19:28:51.842Z,20.70
2018-09-10T19:31:20.847Z,20.60
2018-09-10T19:33:50.540Z,20.50
2018-09-10T19:36:19.024Z,20.50
2018-09-10T19:38:47.549Z,20.40
2018-09-10T19:41:16.429Z,20.30
2018-09-10T19:43:45.014Z,20.30
2018-09-10T19:46:13.662Z,20.30
2018-09-10T19:48:42.406Z,20.20
2018-09-10T19:51:11.013Z,20.10
2018-09-10T19:53:40.472Z,20.10
2018-09-10T19:56:09.823Z,20.00
2018-09-10T19:58:38.516Z,19.90
2018-09-10T20:01:07.640Z,19.80
2018-09-10T20:03:36.110Z,19.80
2018-09-10T20:06:04.695Z,19.70
2018-09-10T20:08:33.650Z,19.70
2018-09-10T20:11:02.160Z,19.60
2018-09-10T20:13:30.938Z,19.60
2018-09-10T20:15:59.694Z,19.50
2018-09-10T20:18:28.292Z,19.50
2018-09-10T20:20:56.870Z,19.40
2018-09-10T20:23:25.606Z,19.40
2018-09-10T20:25:58.029Z,19.40
2018-09-10T20:28:26.572Z,19.30
2018-09-10T20:30:57.402Z,19.30
2018-09-10T20:33:25.944Z,19.30
2018-09-10T20:35:58.949Z,19.30
2018-09-10T20:38:27.634Z,19.30
2018-09-10T20:40:56.389Z,19.30
2018-09-10T20:43:31.341Z,19.30
2018-09-10T20:46:00.028Z,19.30
2018-09-10T20:48:28.766Z,19.30
2018-09-10T20:50:57.666Z,19.30
2018-09-10T20:53:26.271Z,19.20
2018-09-10T20:55:54.968Z,19.30
2018-09-10T20:58:24.464Z,19.30
2018-09-10T21:00:53.020Z,19.20
2018-09-10T21:03:37.760Z,19.20
2018-09-10T21:06:06.916Z,19.20
2018-09-10T21:08:35.544Z,19.10
2018-09-10T21:11:04.199Z,19.10
2018-09-10T21:13:38.414Z,19.00
2018-09-10T21:16:07.249Z,19.00
2018-09-10T21:18:35.992Z,19.00
2018-09-10T21:21:04.548Z,18.90
2018-09-10T21:23:33.362Z,18.90
2018-09-10T21:26:02.952Z,18.80
2018-09-10T21:28:31.554Z,18.80
2018-09-10T21:31:00.147Z,18.70
2018-09-10T21:33:28.592Z,18.70
2018-09-10T21:35:57.307Z,18.60
2018-09-10T21:38:25.825Z,18.60
2018-09-10T21:40:54.336Z,18.60
2018-09-10T21:43:23.346Z,18.50
2018-09-10T21:45:51.867Z,18.50
2018-09-10T21:48:21.286Z,18.40
2018-09-10T21:50:50.035Z,18.40
2018-09-10T21:53:19.042Z,18.30
2018-09-10T21:55:47.606Z,18.30
2018-09-10T21:58:16.156Z,18.20
2018-09-10T22:00:50.160Z,18.10
2018-09-10T22:03:18.743Z,18.10
2018-09-10T22:05:47.660Z,18.10
2018-09-10T22:08:16.829Z,18.00
2018-09-10T22:10:45.429Z,18.00
2018-09-10T22:13:14.307Z,17.90
2018-09-10T22:15:43.519Z,17.90
2018-09-10T22:18:13.051Z,17.80
2018-09-10T22:20:42.072Z,17.80
2018-09-10T22:23:10.825Z,17.80
2018-09-10T22:25:39.662Z,17.80
2018-09-10T22:28:08.143Z,17.70
2018-09-10T22:30:38.389Z,17.60
2018-09-10T22:33:07.466Z,17.60
2018-09-10T22:35:35.928Z,17.60
2018-09-10T22:38:04.591Z,17.60
2018-09-10T22:40:33.538Z,17.50
2018-09-10T22:43:02.276Z,17.50
2018-09-10T22:45:31.029Z,17.40
2018-09-10T22:47:59.561Z,17.40
2018-09-10T22:50:28.308Z,17.40
2018-09-10T22:52:57.186Z,17.30
2018-09-10T22:55:25.843Z,17.30
2018-09-10T22:57:54.469Z,17.30
2018-09-10T23:00:23.654Z,17.20
2018-09-10T23:02:52.191Z,17.20
2018-09-10T23:05:20.734Z,17.20
2018-09-10T23:07:49.276Z,17.10
2018-09-10T23:10:18.592Z,17.10
2018-09-10T23:12:47.293Z,17.10
2018-09-10T23:15:16.003Z,17.10
2018-09-10T23:17:44.556Z,17.10
2018-09-10T23:20:13.357Z,17.10
2018-09-10T23:22:42.098Z,17.00
2018-09-10T23:25:10.932Z,17.00
2018-09-10T23:27:43.598Z,17.00
2018-09-10T23:30:12.092Z,16.90
2018-09-10T23:32:40.670Z,16.90
2018-09-10T23:35:09.274Z,16.90
2018-09-10T23:37:38.292Z,16.80
2018-09-10T23:40:07.097Z,16.80
2018-09-10T23:42:35.850Z,16.80
2018-09-10T23:45:04.476Z,16.80
2018-09-10T23:47:33.211Z,16.80
2018-09-10T23:50:01.766Z,16.80
2018-09-10T23:52:30.270Z,16.80
2018-09-10T23:54:58.842Z,16.80
2018-09-10T23:57:27.455Z,16.80
2018-09-10T23:59:56.006Z,16.80
